AFW weather

Fort Worth Alliance Airport
Fort Worth, Texas, United States

Public forecast

Using degrees Fahrenheit for public forecast. Weather courtesy of forecast.io.

Current aviation weather report (METAR) for Fort Worth Alliance Airport

Retrieved 2019/12/08 22:53 UTC (1 hour ago):

KAFW 082253Z 17013KT 10SM SCT250 OVC300 22/10 A2977 RMK AO2 SLP076 T02170100

Aviation forecast (TAF) for Fort Worth Alliance Airport

Retrieved 2019/12/08 18:33 UTC (5 hours ago):

TAF KAFW 081729Z 0818/0918 19017G25KT P6SM BKN250 FM091000 22015KT P6SM BKN150 FM091700 27012KT P6SM BKN100